createdAt,value
2019-05-20T00:02:24.685Z,16.70
2019-05-20T00:04:51.430Z,16.70
2019-05-20T00:07:20.531Z,16.70
2019-05-20T00:09:50.017Z,16.60
2019-05-20T00:12:19.126Z,16.60
2019-05-20T00:14:48.204Z,16.60
2019-05-20T00:17:17.300Z,16.60
2019-05-20T00:19:46.372Z,16.60
2019-05-20T00:22:15.472Z,16.60
2019-05-20T00:24:44.531Z,16.60
2019-05-20T00:27:13.642Z,16.60
2019-05-20T00:29:42.722Z,16.60
2019-05-20T00:32:11.860Z,16.60
2019-05-20T00:34:41.007Z,16.60
2019-05-20T00:37:10.109Z,16.60
2019-05-20T00:39:39.176Z,16.60
2019-05-20T00:42:08.255Z,16.60
2019-05-20T00:44:37.322Z,16.60
2019-05-20T00:47:06.440Z,16.60
2019-05-20T00:49:36.093Z,16.60
2019-05-20T00:52:05.358Z,16.50
2019-05-20T00:54:34.449Z,16.50
2019-05-20T00:57:03.506Z,16.50
2019-05-20T00:59:32.642Z,16.60
2019-05-20T01:02:01.715Z,16.60
2019-05-20T01:04:30.827Z,16.50
2019-05-20T01:06:59.902Z,16.50
2019-05-20T01:09:29.025Z,16.50
2019-05-20T01:11:58.118Z,16.50
2019-05-20T01:14:27.622Z,16.50
2019-05-20T01:16:56.615Z,16.50
2019-05-20T01:19:25.787Z,16.50
2019-05-20T01:21:54.918Z,16.40
2019-05-20T01:24:23.986Z,16.40
2019-05-20T01:26:53.062Z,16.40
2019-05-20T01:29:22.088Z,16.40
2019-05-20T01:31:51.214Z,16.40
2019-05-20T01:34:20.325Z,16.40
2019-05-20T01:36:49.402Z,16.30
2019-05-20T01:39:18.571Z,16.30
2019-05-20T01:41:47.626Z,16.30
2019-05-20T01:44:16.653Z,16.30
2019-05-20T01:46:45.704Z,16.30
2019-05-20T01:49:14.880Z,16.40
2019-05-20T01:51:43.958Z,16.30
2019-05-20T01:54:13.072Z,16.30
2019-05-20T01:56:42.136Z,16.30
2019-05-20T01:59:11.227Z,16.30
2019-05-20T02:01:40.315Z,16.30
2019-05-20T02:04:09.409Z,16.30
2019-05-20T02:06:38.493Z,16.30
2019-05-20T02:09:09.209Z,16.30
2019-05-20T02:11:38.290Z,16.30
2019-05-20T02:14:11.320Z,16.30
2019-05-20T02:16:40.404Z,16.30
2019-05-20T02:19:09.525Z,16.20
2019-05-20T02:21:38.627Z,16.30
2019-05-20T02:24:07.746Z,16.20
2019-05-20T02:26:36.813Z,16.20
2019-05-20T02:29:05.937Z,16.20
2019-05-20T02:31:35.025Z,16.20
2019-05-20T02:34:04.221Z,16.20
2019-05-20T02:36:33.278Z,16.10
2019-05-20T02:39:02.455Z,16.10
2019-05-20T02:41:31.555Z,16.10
2019-05-20T02:44:00.644Z,16.10
2019-05-20T02:46:29.725Z,16.00
2019-05-20T02:48:58.742Z,16.00
2019-05-20T02:51:36.751Z,16.00
2019-05-20T02:54:05.881Z,16.00
2019-05-20T02:56:34.966Z,16.00
2019-05-20T02:59:04.054Z,16.00
2019-05-20T03:01:33.149Z,15.90
2019-05-20T03:04:11.794Z,15.90
2019-05-20T03:06:33.061Z,15.80
2019-05-20T03:09:02.146Z,15.80
2019-05-20T03:11:31.241Z,15.80
2019-05-20T03:14:00.313Z,15.80
2019-05-20T03:16:29.405Z,15.70
2019-05-20T03:18:58.487Z,15.70
2019-05-20T03:21:27.591Z,15.70
2019-05-20T03:23:56.639Z,15.70
2019-05-20T03:26:25.754Z,15.60
2019-05-20T03:28:54.754Z,15.60
2019-05-20T03:31:23.848Z,15.50
2019-05-20T03:33:52.960Z,15.50
2019-05-20T03:36:22.150Z,15.50
2019-05-20T03:38:51.294Z,15.50
2019-05-20T03:41:20.380Z,15.40
2019-05-20T03:43:49.514Z,15.40
2019-05-20T03:46:18.619Z,15.40
2019-05-20T03:48:47.785Z,15.30
2019-05-20T03:51:16.871Z,15.30
2019-05-20T03:53:45.956Z,15.30
2019-05-20T03:56:15.064Z,15.20
2019-05-20T03:58:44.161Z,15.20
2019-05-20T04:01:13.243Z,15.20
2019-05-20T04:03:42.341Z,15.20
2019-05-20T04:06:11.507Z,15.10
2019-05-20T04:08:40.563Z,15.10
2019-05-20T04:11:09.671Z,15.10
2019-05-20T04:13:38.736Z,15.10
2019-05-20T04:16:07.846Z,15.00
2019-05-20T04:18:36.914Z,15.00
2019-05-20T04:21:06.020Z,15.00
2019-05-20T04:23:35.573Z,15.00
2019-05-20T04:26:04.831Z,15.00
2019-05-20T04:28:33.913Z,15.00
2019-05-20T04:31:03.019Z,15.00
2019-05-20T04:33:32.083Z,15.00
2019-05-20T04:36:01.194Z,15.00
2019-05-20T04:38:30.292Z,15.10
2019-05-20T04:40:59.390Z,15.10
2019-05-20T04:43:28.583Z,15.10
2019-05-20T04:45:57.888Z,15.10
2019-05-20T04:48:26.947Z,15.10
2019-05-20T04:50:56.014Z,15.10
2019-05-20T04:53:25.100Z,15.10
2019-05-20T04:55:54.173Z,15.20
2019-05-20T04:58:23.189Z,15.20
2019-05-20T05:00:54.551Z,15.20
2019-05-20T05:03:24.302Z,15.20
2019-05-20T05:05:53.542Z,15.20
2019-05-20T05:08:23.135Z,15.20
2019-05-20T05:10:52.797Z,15.20
2019-05-20T05:13:22.612Z,15.30
2019-05-20T05:15:51.709Z,15.30
2019-05-20T05:18:21.202Z,15.30
2019-05-20T05:20:50.371Z,15.30
2019-05-20T05:23:19.490Z,15.30
2019-05-20T05:25:48.549Z,15.20
2019-05-20T05:28:17.639Z,15.30
2019-05-20T05:30:47.419Z,15.20
2019-05-20T05:33:16.554Z,15.20
2019-05-20T05:35:53.403Z,15.20
2019-05-20T05:38:16.432Z,15.20
2019-05-20T05:40:45.530Z,15.20
2019-05-20T05:43:14.727Z,15.20
2019-05-20T05:45:43.905Z,15.20
2019-05-20T05:48:13.013Z,15.20
2019-05-20T05:50:42.227Z,15.20
2019-05-20T05:53:11.349Z,15.20
2019-05-20T05:55:40.556Z,15.30
2019-05-20T05:58:09.693Z,15.30
2019-05-20T06:00:38.777Z,15.30
2019-05-20T06:03:07.937Z,15.30
2019-05-20T06:05:37.039Z,15.30
2019-05-20T06:08:06.151Z,15.30
2019-05-20T06:10:36.041Z,15.40
2019-05-20T06:13:05.410Z,15.40
2019-05-20T06:15:34.544Z,15.40
2019-05-20T06:18:04.050Z,15.50
2019-05-20T06:20:33.142Z,15.50
2019-05-20T06:23:03.526Z,15.50
2019-05-20T06:25:32.623Z,15.60
2019-05-20T06:28:01.727Z,15.60
2019-05-20T06:30:40.376Z,15.70
2019-05-20T06:33:09.538Z,15.70
2019-05-20T06:35:38.638Z,15.80
2019-05-20T06:38:11.808Z,15.80
2019-05-20T06:40:40.887Z,15.90
2019-05-20T06:43:09.970Z,15.80
2019-05-20T06:45:39.150Z,15.90
2019-05-20T06:48:08.253Z,15.90
2019-05-20T06:50:37.346Z,15.90
2019-05-20T06:53:06.449Z,16.00
2019-05-20T06:55:35.580Z,16.00
2019-05-20T06:58:04.725Z,16.00
2019-05-20T07:00:37.767Z,16.10
2019-05-20T07:03:06.867Z,16.10
2019-05-20T07:05:36.222Z,16.10
2019-05-20T07:08:05.437Z,16.20
2019-05-20T07:10:34.756Z,16.20
2019-05-20T07:13:03.847Z,16.30
2019-05-20T07:15:33.046Z,16.30
2019-05-20T07:18:02.275Z,16.30
2019-05-20T07:20:31.400Z,16.40
2019-05-20T07:23:00.529Z,16.40
2019-05-20T07:25:29.767Z,16.50
2019-05-20T07:28:00.833Z,16.50
2019-05-20T07:30:29.957Z,16.50
2019-05-20T07:32:59.066Z,16.60
2019-05-20T07:35:30.799Z,16.60
2019-05-20T07:37:59.063Z,16.70
2019-05-20T07:40:32.680Z,16.70
2019-05-20T07:43:02.989Z,16.70
2019-05-20T07:45:34.865Z,16.70
2019-05-20T07:48:05.482Z,16.80
2019-05-20T07:50:37.975Z,16.80
2019-05-20T07:53:07.719Z,16.80
2019-05-20T07:55:41.603Z,16.80
2019-05-20T07:58:12.405Z,16.80
2019-05-20T08:00:41.947Z,16.80
2019-05-20T08:03:11.514Z,16.80
2019-05-20T08:05:40.603Z,16.80
2019-05-20T08:08:09.716Z,16.80
2019-05-20T08:10:38.854Z,16.80
2019-05-20T08:13:07.994Z,16.80
2019-05-20T08:15:37.118Z,16.90
2019-05-20T08:18:06.514Z,16.90
2019-05-20T08:20:35.602Z,17.00
2019-05-20T08:23:04.729Z,17.00
2019-05-20T08:25:33.905Z,17.00
2019-05-20T08:28:03.034Z,17.00
2019-05-20T08:30:34.675Z,17.10
2019-05-20T08:33:04.141Z,17.10
2019-05-20T08:35:33.291Z,17.10
2019-05-20T08:38:02.485Z,17.10
2019-05-20T08:40:32.817Z,17.10
2019-05-20T08:43:01.911Z,17.10
2019-05-20T08:45:31.030Z,17.10
2019-05-20T08:48:00.121Z,17.10
2019-05-20T08:50:29.246Z,17.00
2019-05-20T08:52:58.360Z,17.00
2019-05-20T08:55:27.500Z,17.00
2019-05-20T08:57:56.632Z,17.00
2019-05-20T09:00:26.030Z,17.00
2019-05-20T09:02:55.388Z,17.00
2019-05-20T09:05:27.893Z,17.00
2019-05-20T09:08:02.956Z,17.00
2019-05-20T09:10:27.030Z,17.00
2019-05-20T09:12:56.168Z,17.00
2019-05-20T09:15:25.275Z,17.00
2019-05-20T09:17:54.388Z,17.00
2019-05-20T09:20:23.659Z,17.00
2019-05-20T09:22:52.964Z,17.00
2019-05-20T09:25:31.295Z,17.10
2019-05-20T09:28:01.337Z,17.10
2019-05-20T09:30:30.442Z,17.10
2019-05-20T09:32:59.624Z,17.20
2019-05-20T09:35:28.947Z,17.30
2019-05-20T09:37:58.775Z,17.40
2019-05-20T09:40:42.447Z,17.40
2019-05-20T09:43:11.809Z,17.50
2019-05-20T09:45:42.563Z,17.60
2019-05-20T09:48:12.667Z,17.70
2019-05-20T09:50:41.871Z,17.80
2019-05-20T09:53:12.656Z,17.80
2019-05-20T09:55:41.841Z,17.90
2019-05-20T09:58:10.932Z,18.00
2019-05-20T10:00:40.241Z,18.10
2019-05-20T10:03:09.416Z,18.10
2019-05-20T10:05:38.565Z,18.30
2019-05-20T10:08:07.710Z,18.30
2019-05-20T10:10:37.373Z,18.40
2019-05-20T10:13:07.906Z,18.50
2019-05-20T10:15:37.479Z,18.60
2019-05-20T10:18:06.627Z,18.60
2019-05-20T10:20:35.781Z,18.70
2019-05-20T10:23:05.115Z,18.70
2019-05-20T10:25:34.207Z,18.80
2019-05-20T10:28:03.364Z,18.90
2019-05-20T10:30:32.480Z,18.90
2019-05-20T10:33:01.648Z,19.00
2019-05-20T10:35:30.731Z,19.10
2019-05-20T10:37:59.878Z,19.10
2019-05-20T10:40:28.982Z,19.20
2019-05-20T10:42:58.145Z,19.30
2019-05-20T10:45:27.241Z,19.30
2019-05-20T10:47:56.377Z,19.40
2019-05-20T10:50:25.469Z,19.50
2019-05-20T10:52:54.617Z,19.50
2019-05-20T10:55:24.729Z,19.50
2019-05-20T10:57:53.951Z,19.60
2019-05-20T11:00:23.417Z,19.60
2019-05-20T11:02:52.549Z,19.70
2019-05-20T11:05:21.664Z,19.80
2019-05-20T11:07:50.794Z,19.90
2019-05-20T11:10:20.191Z,20.00
2019-05-20T11:12:49.362Z,20.10
2019-05-20T11:15:18.549Z,20.20
2019-05-20T11:17:47.663Z,20.30
2019-05-20T11:20:16.956Z,20.40
2019-05-20T11:22:46.048Z,20.60
2019-05-20T11:25:15.387Z,20.70
2019-05-20T11:27:44.522Z,20.80
2019-05-20T11:30:13.888Z,20.80
2019-05-20T11:32:43.142Z,20.90
2019-05-20T11:35:13.262Z,20.90
2019-05-20T11:37:42.403Z,20.90
2019-05-20T11:40:12.323Z,20.90
2019-05-20T11:42:41.978Z,20.90
2019-05-20T11:45:11.687Z,20.90
2019-05-20T11:47:40.791Z,20.90
2019-05-20T11:50:10.920Z,20.90
2019-05-20T11:52:40.115Z,20.90
2019-05-20T11:55:09.830Z,20.90
2019-05-20T11:57:39.155Z,21.00
2019-05-20T12:00:09.288Z,21.10
2019-05-20T12:02:38.443Z,21.10
2019-05-20T12:05:08.593Z,21.20
2019-05-20T12:07:37.756Z,21.40
2019-05-20T12:10:07.598Z,21.40
2019-05-20T12:12:36.648Z,21.50
2019-05-20T12:15:06.804Z,21.60
2019-05-20T12:17:36.736Z,21.60
2019-05-20T12:20:07.588Z,21.70
2019-05-20T12:22:37.428Z,21.70
2019-05-20T12:25:06.758Z,21.80
2019-05-20T12:27:35.853Z,21.80
2019-05-20T12:30:05.994Z,21.90
2019-05-20T12:32:35.166Z,21.90
2019-05-20T12:35:04.690Z,22.00
2019-05-20T12:37:33.789Z,22.00
2019-05-20T12:40:07.832Z,22.00
2019-05-20T12:42:33.765Z,22.10
2019-05-20T12:45:02.967Z,22.20
2019-05-20T12:47:32.075Z,22.30
2019-05-20T12:50:01.254Z,22.40
2019-05-20T12:52:30.455Z,22.50
2019-05-20T12:55:07.844Z,22.50
2019-05-20T12:57:30.539Z,22.50
2019-05-20T12:59:59.728Z,22.50
2019-05-20T13:02:28.821Z,22.60
2019-05-20T13:04:57.977Z,22.60
2019-05-20T13:07:27.120Z,22.60
2019-05-20T13:09:56.371Z,22.60
2019-05-20T13:12:25.495Z,22.70
2019-05-20T13:14:54.609Z,22.70
2019-05-20T13:17:24.176Z,22.70
2019-05-20T13:19:53.583Z,22.60
2019-05-20T13:22:22.709Z,22.60
2019-05-20T13:24:51.977Z,22.70
2019-05-20T13:27:21.155Z,22.70
2019-05-20T13:29:50.299Z,22.70
2019-05-20T13:32:19.441Z,22.80
2019-05-20T13:34:48.551Z,22.80
2019-05-20T13:37:17.686Z,22.80
2019-05-20T13:39:46.766Z,22.80
2019-05-20T13:42:15.888Z,22.90
2019-05-20T13:44:44.987Z,23.00
2019-05-20T13:47:14.105Z,23.10
2019-05-20T13:49:43.229Z,23.30
2019-05-20T13:52:12.391Z,23.40
2019-05-20T13:54:41.515Z,23.50
2019-05-20T13:57:13.178Z,23.50
2019-05-20T13:59:41.482Z,23.60
2019-05-20T14:02:10.621Z,23.70
2019-05-20T14:04:39.804Z,23.80
2019-05-20T14:07:08.914Z,23.80
2019-05-20T14:09:37.991Z,23.90
2019-05-20T14:12:07.118Z,23.90
2019-05-20T14:14:36.201Z,23.90
2019-05-20T14:17:05.317Z,23.90
2019-05-20T14:19:34.479Z,23.90
2019-05-20T14:22:03.618Z,24.00
2019-05-20T14:24:32.814Z,24.00
2019-05-20T14:27:02.010Z,24.10
2019-05-20T14:29:31.176Z,24.10
2019-05-20T14:32:00.432Z,24.00
2019-05-20T14:34:29.540Z,24.00
2019-05-20T14:36:58.664Z,24.00
2019-05-20T14:39:27.764Z,23.90
2019-05-20T14:41:57.013Z,23.80
2019-05-20T14:44:26.112Z,23.60
2019-05-20T14:46:55.256Z,23.50
2019-05-20T14:49:24.362Z,23.40
2019-05-20T14:51:53.532Z,23.30
2019-05-20T14:54:22.576Z,23.10
2019-05-20T14:56:51.683Z,22.90
2019-05-20T14:59:20.785Z,22.70
2019-05-20T15:01:49.894Z,22.60
2019-05-20T15:04:19.096Z,22.40
2019-05-20T15:06:48.280Z,22.30
2019-05-20T15:09:17.374Z,22.10
2019-05-20T15:11:46.530Z,22.00
2019-05-20T15:14:15.654Z,21.80
2019-05-20T15:16:44.764Z,21.60
2019-05-20T15:19:13.948Z,21.50
2019-05-20T15:21:43.038Z,21.40
2019-05-20T15:24:12.217Z,21.20
2019-05-20T15:26:41.558Z,21.10
2019-05-20T15:29:26.977Z,21.00
2019-05-20T15:31:41.591Z,20.80
2019-05-20T15:34:10.714Z,20.80
2019-05-20T15:36:40.015Z,20.70
2019-05-20T15:39:09.296Z,20.60
2019-05-20T15:41:38.385Z,20.60
2019-05-20T15:44:07.493Z,20.50
2019-05-20T15:46:36.661Z,20.50
2019-05-20T15:49:05.971Z,20.40
2019-05-20T15:51:35.449Z,20.40
2019-05-20T15:54:04.767Z,20.30
2019-05-20T15:56:33.861Z,20.30
2019-05-20T15:59:03.003Z,20.20
2019-05-20T16:01:32.124Z,20.20
2019-05-20T16:04:01.309Z,20.20
2019-05-20T16:06:30.458Z,20.20
2019-05-20T16:08:59.671Z,20.10
2019-05-20T16:11:28.860Z,20.10
2019-05-20T16:13:58.152Z,20.10
2019-05-20T16:16:27.396Z,20.10
2019-05-20T16:18:56.493Z,20.10
2019-05-20T16:21:25.577Z,20.10
2019-05-20T16:23:54.707Z,20.10
2019-05-20T16:26:23.789Z,20.10
2019-05-20T16:28:52.899Z,20.10
2019-05-20T16:31:21.969Z,20.10
2019-05-20T16:33:51.106Z,20.10
2019-05-20T16:36:20.211Z,20.10
2019-05-20T16:38:49.434Z,20.00
2019-05-20T16:41:18.632Z,20.00
2019-05-20T16:43:47.745Z,20.00
2019-05-20T16:46:16.846Z,20.00
2019-05-20T16:48:45.971Z,20.00
2019-05-20T16:51:15.174Z,20.00
2019-05-20T16:53:44.340Z,20.00
2019-05-20T16:56:13.438Z,19.90
2019-05-20T16:58:42.580Z,19.90
2019-05-20T17:01:11.760Z,19.90
2019-05-20T17:03:40.900Z,19.90
2019-05-20T17:06:10.030Z,19.80
2019-05-20T17:08:39.175Z,19.80
2019-05-20T17:11:08.307Z,19.80
2019-05-20T17:13:37.438Z,19.80
2019-05-20T17:16:06.616Z,19.70
2019-05-20T17:18:35.745Z,19.70
2019-05-20T17:21:04.838Z,19.60
2019-05-20T17:23:33.982Z,19.60
2019-05-20T17:26:03.120Z,19.50
2019-05-20T17:28:32.225Z,19.40
2019-05-20T17:31:01.395Z,19.40
2019-05-20T17:33:30.542Z,19.30
2019-05-20T17:35:59.655Z,19.30
2019-05-20T17:38:28.770Z,19.20
2019-05-20T17:40:57.891Z,19.10
2019-05-20T17:43:27.027Z,19.10
2019-05-20T17:45:56.144Z,19.10
2019-05-20T17:48:25.249Z,19.00
2019-05-20T17:50:54.377Z,19.00
2019-05-20T17:53:23.523Z,18.90
2019-05-20T17:55:52.677Z,18.90
2019-05-20T17:58:21.780Z,18.90
2019-05-20T18:00:51.163Z,18.80
2019-05-20T18:03:20.304Z,18.80
2019-05-20T18:05:49.469Z,18.80
2019-05-20T18:08:18.636Z,18.70
2019-05-20T18:10:47.779Z,18.70
2019-05-20T18:13:16.923Z,18.70
2019-05-20T18:15:46.033Z,18.60
2019-05-20T18:18:15.157Z,18.60
2019-05-20T18:20:44.258Z,18.60
2019-05-20T18:23:13.454Z,18.50
2019-05-20T18:25:42.617Z,18.50
2019-05-20T18:28:11.799Z,18.50
2019-05-20T18:30:40.987Z,18.40
2019-05-20T18:33:10.083Z,18.40
2019-05-20T18:35:39.209Z,18.40
2019-05-20T18:38:08.341Z,18.30
2019-05-20T18:40:40.267Z,18.30
2019-05-20T18:43:09.442Z,18.30
2019-05-20T18:45:42.351Z,18.20
2019-05-20T18:48:12.019Z,18.20
2019-05-20T18:50:41.154Z,18.20
2019-05-20T18:53:10.354Z,18.20
2019-05-20T18:55:39.495Z,18.20
2019-05-20T18:58:08.845Z,18.10
2019-05-20T19:00:38.049Z,18.10
2019-05-20T19:03:07.236Z,18.10
2019-05-20T19:05:36.460Z,18.10
2019-05-20T19:08:05.590Z,18.00
2019-05-20T19:10:34.719Z,18.00
2019-05-20T19:13:04.106Z,18.00
2019-05-20T19:15:33.363Z,17.90
2019-05-20T19:18:02.495Z,17.90
2019-05-20T19:20:31.594Z,17.90
2019-05-20T19:23:00.717Z,17.90
2019-05-20T19:25:37.398Z,17.80
2019-05-20T19:28:00.734Z,17.80
2019-05-20T19:30:29.882Z,17.80
2019-05-20T19:32:59.090Z,17.70
2019-05-20T19:35:28.230Z,17.70
2019-05-20T19:37:57.400Z,17.70
2019-05-20T19:40:26.571Z,17.70
2019-05-20T19:42:55.732Z,17.70
2019-05-20T19:45:24.886Z,17.60
2019-05-20T19:47:53.996Z,17.60
2019-05-20T19:50:23.131Z,17.50
2019-05-20T19:52:53.501Z,17.50
2019-05-20T19:55:22.730Z,17.50
2019-05-20T19:57:51.848Z,17.50
2019-05-20T20:00:21.200Z,17.40
2019-05-20T20:02:50.338Z,17.40
2019-05-20T20:05:19.520Z,17.40
2019-05-20T20:07:48.694Z,17.40
2019-05-20T20:10:17.845Z,17.40
2019-05-20T20:12:46.973Z,17.40
2019-05-20T20:15:18.376Z,17.30
2019-05-20T20:17:47.505Z,17.30
2019-05-20T20:20:16.731Z,17.30
2019-05-20T20:22:46.203Z,17.20
2019-05-20T20:25:15.348Z,17.20
2019-05-20T20:27:44.553Z,17.20
2019-05-20T20:30:13.978Z,17.20
2019-05-20T20:32:43.089Z,17.10
2019-05-20T20:35:12.321Z,17.10
2019-05-20T20:37:41.429Z,17.10
2019-05-20T20:40:10.749Z,17.10
2019-05-20T20:42:39.865Z,17.10
2019-05-20T20:45:09.049Z,17.10
2019-05-20T20:47:42.382Z,17.10
2019-05-20T20:50:09.627Z,17.10
2019-05-20T20:52:38.739Z,17.00
2019-05-20T20:55:08.674Z,17.00
2019-05-20T20:57:37.827Z,17.00
2019-05-20T21:00:07.532Z,17.00
2019-05-20T21:02:36.699Z,17.00
2019-05-20T21:05:06.145Z,16.90
2019-05-20T21:07:35.341Z,16.90
2019-05-20T21:10:04.851Z,16.90
2019-05-20T21:12:34.043Z,16.90
2019-05-20T21:15:03.195Z,16.90
2019-05-20T21:17:32.475Z,16.80
2019-05-20T21:20:01.617Z,16.80
2019-05-20T21:22:30.743Z,16.80
2019-05-20T21:24:59.816Z,16.80
2019-05-20T21:27:28.965Z,16.80
2019-05-20T21:29:58.113Z,16.80
2019-05-20T21:32:27.258Z,16.80
2019-05-20T21:34:56.338Z,16.70
2019-05-20T21:37:25.464Z,16.70
2019-05-20T21:39:54.548Z,16.70
2019-05-20T21:42:23.664Z,16.70
2019-05-20T21:44:52.742Z,16.70
2019-05-20T21:47:21.841Z,16.70
2019-05-20T21:49:50.927Z,16.60
2019-05-20T21:52:20.069Z,16.60
2019-05-20T21:54:49.191Z,16.60
2019-05-20T21:57:18.313Z,16.60
2019-05-20T21:59:47.411Z,16.60
2019-05-20T22:02:16.514Z,16.60
2019-05-20T22:04:45.666Z,16.60
2019-05-20T22:07:14.908Z,16.50
2019-05-20T22:09:43.942Z,16.50
2019-05-20T22:12:13.079Z,16.50
2019-05-20T22:14:42.220Z,16.50
2019-05-20T22:17:11.360Z,16.40
2019-05-20T22:19:40.492Z,16.50
2019-05-20T22:22:17.509Z,16.40
2019-05-20T22:24:46.606Z,16.40
2019-05-20T22:27:15.701Z,16.40
2019-05-20T22:29:44.793Z,16.40
2019-05-20T22:32:49.770Z,16.40
2019-05-20T22:35:18.859Z,16.40
2019-05-20T22:37:48.004Z,16.40
2019-05-20T22:40:17.154Z,16.40
2019-05-20T22:42:46.237Z,16.30
2019-05-20T22:45:15.344Z,16.30
2019-05-20T22:47:44.427Z,16.30
2019-05-20T22:50:13.543Z,16.30
2019-05-20T22:52:42.637Z,16.30
2019-05-20T22:55:11.855Z,16.20
2019-05-20T22:57:40.973Z,16.20
2019-05-20T23:00:11.295Z,16.20
2019-05-20T23:02:40.384Z,16.20
2019-05-20T23:05:09.509Z,16.20
2019-05-20T23:07:38.606Z,16.20
2019-05-20T23:10:07.901Z,16.20
2019-05-20T23:12:36.988Z,16.10
2019-05-20T23:15:07.236Z,16.10
2019-05-20T23:17:36.386Z,16.20
2019-05-20T23:20:05.795Z,16.20
2019-05-20T23:22:34.892Z,16.10
2019-05-20T23:25:04.285Z,16.10
2019-05-20T23:27:33.371Z,16.10
2019-05-20T23:30:02.486Z,16.00
2019-05-20T23:32:31.534Z,16.00
2019-05-20T23:35:00.571Z,16.00
2019-05-20T23:37:29.665Z,16.00
2019-05-20T23:39:58.768Z,16.00
2019-05-20T23:42:27.871Z,16.00
2019-05-20T23:44:56.957Z,16.00
2019-05-20T23:47:25.967Z,16.00
2019-05-20T23:49:55.112Z,16.00
2019-05-20T23:52:24.311Z,16.00
2019-05-20T23:54:54.524Z,15.90
2019-05-20T23:57:24.596Z,15.90
2019-05-20T23:59:53.725Z,15.90
